Time;durP1;ratioP1;P1;durP2;ratioP2;P2;SDS_P1;SDS_P2;PMS_P1;PMS_P2;Temp;Humidity;BMP_temperature;BMP_pressure;BME280_temperature;BME280_humidity;BME280_pressure;Samples;Min_cycle;Max_cycle;Signal;HPM_P1;HPM_P2
2021/09/09 00:00:56;;;;;;;12.20;10.30;;;16.80;75.50;;;15.90;74.93;95833.97;4946603;28;20043;-66
2021/09/09 00:03:21;;;;;;;10.73;9.63;;;16.80;75.70;;;15.85;75.46;95841.81;4964183;28;20049;-66
2021/09/09 00:05:47;;;;;;;10.77;9.68;;;16.80;75.80;;;15.82;75.79;95836.94;4964849;28;20061;-66
2021/09/09 00:08:13;;;;;;;13.13;10.98;;;16.70;76.00;;;15.78;76.22;95825.16;4950170;28;20035;-66
2021/09/09 00:10:39;;;;;;;14.80;10.63;;;16.70;76.20;;;15.76;76.41;95837.84;4967210;28;20061;-65
2021/09/09 00:13:05;;;;;;;12.55;10.98;;;16.70;76.20;;;15.71;76.57;95829.78;4981087;28;20130;-66
2021/09/09 00:15:30;;;;;;;12.40;10.50;;;16.60;76.30;;;15.69;77.15;95826.53;4990046;28;21984;-66
2021/09/09 00:17:56;;;;;;;13.75;10.05;;;16.60;76.30;;;15.67;76.60;95830.47;4973482;28;20041;-66
2021/09/09 00:20:22;;;;;;;12.70;10.18;;;16.60;76.30;;;15.66;76.50;95829.66;4981492;28;20050;-65
2021/09/09 00:22:48;;;;;;;11.98;9.95;;;16.60;76.10;;;15.65;77.14;95828.03;4950720;28;20038;-66
2021/09/09 00:25:13;;;;;;;13.43;9.82;;;16.60;76.00;;;15.65;77.05;95835.19;4965257;28;20122;-66
2021/09/09 00:27:39;;;;;;;11.25;10.15;;;16.60;76.10;;;15.63;76.37;95826.66;4945990;28;20035;-66
2021/09/09 00:30:06;;;;;;;12.05;10.63;;;16.60;76.00;;;15.59;77.58;95826.28;4935455;28;20026;-66
2021/09/09 00:32:32;;;;;;;12.80;10.30;;;16.60;76.20;;;15.57;76.83;95833.63;4983067;28;20078;-65
2021/09/09 00:34:58;;;;;;;11.73;10.02;;;16.60;76.10;;;15.57;76.80;95833.63;4981850;28;20105;-66
2021/09/09 00:37:24;;;;;;;12.18;10.60;;;16.60;76.20;;;15.56;76.38;95829.34;4953479;28;20436;-66
2021/09/09 00:39:49;;;;;;;12.25;10.52;;;16.60;76.10;;;15.53;76.72;95827.97;4947623;28;20038;-66
2021/09/09 00:42:15;;;;;;;12.30;10.43;;;16.50;76.10;;;15.50;76.59;95830.25;4949731;28;20090;-66
2021/09/09 00:44:41;;;;;;;12.00;10.77;;;16.50;76.30;;;15.48;77.94;95834.97;4944005;28;20026;-65
2021/09/09 00:47:08;;;;;;;12.45;11.15;;;16.50;76.40;;;15.48;77.63;95837.63;4967199;28;20038;-66
2021/09/09 00:49:40;;;;;;;13.10;10.65;;;16.50;76.30;;;15.44;77.94;95833.81;4981173;28;20045;-66
2021/09/09 00:52:06;;;;;;;12.80;10.73;;;16.50;76.30;;;15.46;76.84;95831.75;4979880;28;20027;-66
2021/09/09 00:54:32;;;;;;;12.40;10.45;;;16.50;76.10;;;15.45;77.18;95830.13;4983191;28;20530;-65
2021/09/09 00:56:58;;;;;;;14.13;10.93;;;16.50;76.10;;;15.46;76.69;95831.75;4974523;28;20102;-66
2021/09/09 00:59:24;;;;;;;12.13;10.80;;;16.50;76.00;;;15.42;77.66;95831.41;4965984;28;20101;-65
2021/09/09 01:01:49;;;;;;;11.68;10.48;;;16.40;76.20;;;15.40;77.85;95827.38;4954734;28;20190;-66
2021/09/09 01:04:16;;;;;;;11.75;10.52;;;16.40;76.00;;;15.36;77.02;95826.97;4934801;28;20605;-66
2021/09/09 01:06:41;;;;;;;12.50;11.18;;;16.40;76.10;;;15.34;77.41;95829.03;4928025;28;20837;-66
2021/09/09 01:09:08;;;;;;;13.07;11.65;;;16.40;76.10;;;15.30;76.92;95823.41;4926804;28;20054;-66
2021/09/09 01:11:33;;;;;;;13.57;11.50;;;16.40;76.30;;;15.28;77.11;95830.75;4943825;28;20043;-66
2021/09/09 01:14:11;;;;;;;12.63;11.32;;;16.30;76.40;;;15.26;78.77;95832.84;4954135;28;20100;-65
2021/09/09 01:16:37;;;;;;;14.18;11.07;;;16.20;76.40;;;15.25;77.05;95825.91;4977710;28;20101;-66
2021/09/09 01:19:04;;;;;;;14.70;11.63;;;16.30;76.60;;;15.26;77.30;95832.84;4939793;28;20506;-66
2021/09/09 01:21:30;;;;;;;13.20;11.05;;;16.30;76.50;;;15.25;77.67;95827.75;4967893;28;20031;-65
2021/09/09 01:23:57;;;;;;;14.25;11.77;;;16.30;76.20;;;15.23;77.09;95822.69;4943922;28;20138;-66
2021/09/09 01:26:23;;;;;;;13.07;11.48;;;16.30;76.30;;;15.22;78.47;95834.31;4982009;28;20043;-66
2021/09/09 01:28:49;;;;;;;12.88;11.50;;;16.30;76.30;;;15.21;78.32;95827.41;4977663;28;20143;-66
2021/09/09 01:31:15;;;;;;;16.65;11.98;;;16.20;76.40;;;15.21;77.47;95830.06;4936228;28;20118;-66
2021/09/09 01:33:41;;;;;;;13.55;12.00;;;16.30;76.60;;;15.22;77.42;95826.38;4950395;28;20035;-66
2021/09/09 01:36:07;;;;;;;14.98;12.77;;;16.30;76.70;;;15.22;78.93;95831.66;4963888;28;20131;-66
2021/09/09 01:38:33;;;;;;;17.10;13.73;;;16.30;76.80;;;15.22;77.62;95829.00;4950636;28;20040;-66
2021/09/09 01:40:58;;;;;;;15.73;12.52;;;16.30;76.70;;;15.22;78.90;95831.66;4961295;28;20031;-66
2021/09/09 01:43:24;;;;;;;14.85;12.20;;;16.30;76.70;;;15.23;78.85;95832.47;4946642;28;20083;-66
2021/09/09 01:45:50;;;;;;;15.10;13.50;;;16.30;76.70;;;15.22;78.19;95842.25;4979295;28;20523;-66
2021/09/09 01:48:16;;;;;;;14.45;12.68;;;16.20;76.80;;;15.18;78.24;95835.00;4979143;28;20067;-66
2021/09/09 01:50:41;;;;;;;15.27;13.20;;;16.20;77.00;;;15.14;78.65;95850.50;4947779;28;20054;-66
2021/09/09 01:53:07;;;;;;;14.77;13.07;;;16.20;76.90;;;15.10;79.09;95841.38;4982274;28;20113;-66
2021/09/09 01:55:33;;;;;;;18.25;13.57;;;16.20;76.90;;;15.08;78.54;95840.00;4967406;28;20063;-66
2021/09/09 01:57:58;;;;;;;17.88;14.20;;;16.10;77.00;;;15.06;77.79;95842.88;4964353;28;20074;-66
2021/09/09 02:00:24;;;;;;;15.00;13.02;;;16.10;76.90;;;15.04;79.14;95837.00;4984651;28;20121;-65
2021/09/09 02:02:50;;;;;;;16.23;14.30;;;16.10;77.00;;;15.00;79.41;95839.28;4984045;28;20120;-67
2021/09/09 02:05:16;;;;;;;17.38;14.70;;;16.10;77.30;;;14.99;78.66;95848.25;4986466;28;20079;-66
2021/09/09 02:07:41;;;;;;;17.10;15.40;;;16.10;77.40;;;14.95;79.32;95847.09;4956739;28;20591;-66
2021/09/09 02:10:08;;;;;;;17.55;15.75;;;16.10;77.70;;;14.95;80.22;95844.44;4948447;28;20407;-66
2021/09/09 02:12:34;;;;;;;17.58;15.15;;;16.00;78.00;;;14.92;80.01;95844.06;4931954;28;20507;-66
2021/09/09 02:15:00;;;;;;;18.13;16.23;;;16.00;78.10;;;14.91;79.29;95839.78;4976609;28;20047;-66
2021/09/09 02:17:25;;;;;;;18.77;16.77;;;16.10;78.20;;;14.92;79.19;95846.69;4985327;28;20078;-66
2021/09/09 02:19:51;;;;;;;18.90;16.80;;;16.10;78.20;;;14.93;79.57;95846.47;4969773;28;20186;-66
2021/09/09 02:22:17;;;;;;;20.27;17.80;;;16.10;78.30;;;14.94;80.44;95845.47;4980453;28;20039;-66
2021/09/09 02:24:45;;;;;;;21.90;16.88;;;16.10;78.50;;;14.94;80.33;95845.47;4966208;28;20031;-66
2021/09/09 02:27:16;;;;;;;19.60;17.48;;;16.10;78.40;;;14.93;81.22;95845.66;4983112;28;20049;-65
2021/09/09 02:29:42;;;;;;;19.42;17.42;;;16.10;78.70;;;14.91;80.30;95845.91;4984517;28;20406;-66
2021/09/09 02:32:08;;;;;;;20.15;17.30;;;16.10;78.90;;;14.92;80.28;95849.34;4966123;28;20035;-66
2021/09/09 02:34:34;;;;;;;20.75;18.50;;;16.10;79.00;;;14.92;81.43;95841.41;4967949;28;20515;-66
2021/09/09 02:36:59;;;;;;;21.50;18.08;;;16.10;79.20;;;14.93;80.96;95846.47;4985169;28;20038;-66
2021/09/09 02:39:25;;;;;;;21.20;18.70;;;16.10;79.50;;;14.93;81.50;95843.81;4964296;28;20164;-66
2021/09/09 02:41:51;;;;;;;22.65;20.10;;;16.10;79.50;;;14.93;82.58;95850.97;4975953;28;20082;-64
2021/09/09 02:44:17;;;;;;;22.55;18.13;;;16.10;79.60;;;14.94;82.89;95847.31;4964271;28;20027;-65
2021/09/09 02:46:42;;;;;;;20.27;18.27;;;16.20;79.30;;;14.95;82.64;95843.63;4962232;28;20077;-64
2021/09/09 02:49:08;;;;;;;21.40;18.00;;;16.10;79.30;;;14.96;81.54;95842.59;4951541;28;20121;-63
2021/09/09 02:51:34;;;;;;;19.85;17.67;;;16.10;79.20;;;14.95;81.66;95836.50;4983102;28;20058;-68
2021/09/09 02:53:59;;;;;;;21.70;18.35;;;16.10;79.10;;;14.96;81.26;95847.91;4969732;28;20066;-68
2021/09/09 02:56:25;;;;;;;20.23;17.73;;;16.10;79.00;;;14.95;80.67;95846.28;4951200;28;20062;-66
2021/09/09 02:58:51;;;;;;;20.40;18.30;;;16.10;79.10;;;14.95;80.57;95843.63;4965857;28;20071;-66
2021/09/09 03:01:17;;;;;;;20.88;17.88;;;16.10;79.00;;;14.93;82.29;95843.03;4954912;28;20045;-66
2021/09/09 03:03:43;;;;;;;22.10;18.70;;;16.10;79.30;;;14.91;81.58;95839.78;4954180;28;20039;-66
2021/09/09 03:06:09;;;;;;;21.00;18.33;;;16.00;79.40;;;14.88;81.07;95845.53;4939740;29;20047;-66
2021/09/09 03:08:35;;;;;;;21.73;19.42;;;16.00;79.30;;;14.87;81.94;95841.28;4950054;28;20096;-66
2021/09/09 03:11:01;;;;;;;22.80;19.38;;;16.00;79.40;;;14.81;81.99;95839.50;4952406;28;20553;-66
2021/09/09 03:13:27;;;;;;;22.50;18.67;;;15.80;79.50;;;14.79;82.37;95837.09;4959568;28;20047;-66
2021/09/09 03:15:53;;;;;;;20.23;18.00;;;15.90;79.30;;;14.79;81.99;95836.28;4927994;28;20039;-66
2021/09/09 03:18:18;;;;;;;19.58;17.58;;;15.90;79.10;;;14.76;81.15;95821.66;4946240;28;20506;-66
2021/09/09 03:20:44;;;;;;;22.50;18.10;;;15.90;79.00;;;14.76;82.11;95834.88;4951431;28;20422;-66
2021/09/09 03:23:10;;;;;;;21.50;17.15;;;15.90;79.10;;;14.74;81.76;95829.00;4957524;28;20138;-66
2021/09/09 03:25:38;;;;;;;20.75;18.15;;;15.80;79.20;;;14.75;81.64;95827.16;4979077;28;20517;-66
2021/09/09 03:28:04;;;;;;;30.65;27.10;;;15.80;79.20;;;14.73;81.76;95823.94;4957270;28;20053;-66
2021/09/09 03:30:30;;;;;;;43.03;36.70;;;15.90;79.30;;;14.74;81.79;95820.25;4969359;28;20113;-66
2021/09/09 03:32:56;;;;;;;45.28;38.97;;;15.90;79.40;;;14.70;81.60;95823.31;4983421;28;20118;-66
2021/09/09 03:35:22;;;;;;;29.30;23.25;;;15.80;79.80;;;14.67;83.05;95815.81;4967970;28;20035;-66
2021/09/09 03:37:48;;;;;;;36.30;31.13;;;15.80;79.50;;;14.65;82.20;95820.53;4926904;28;20070;-66
2021/09/09 03:40:14;;;;;;;47.25;38.58;;;15.80;79.50;;;14.65;82.00;95817.06;4970231;28;20121;-66
2021/09/09 03:42:39;;;;;;;28.92;25.83;;;15.80;79.60;;;14.62;83.26;95822.81;4969979;28;20031;-66
2021/09/09 03:45:05;;;;;;;22.95;20.42;;;15.80;79.80;;;14.61;83.37;95818.56;4969539;28;20039;-64
2021/09/09 03:47:31;;;;;;;22.70;20.33;;;15.80;79.70;;;14.58;82.07;95814.50;4968047;28;20070;-65
2021/09/09 03:49:57;;;;;;;32.08;26.30;;;15.70;80.00;;;14.59;82.00;95808.19;4937152;28;20055;-68
2021/09/09 03:52:24;;;;;;;25.02;22.27;;;15.80;79.90;;;14.61;83.30;95813.25;4983246;28;20109;-68
2021/09/09 03:54:49;;;;;;;22.02;18.88;;;15.80;79.90;;;14.62;82.59;95822.81;4966901;28;20035;-69
2021/09/09 03:57:15;;;;;;;21.30;17.90;;;15.80;79.80;;;14.62;82.51;95817.53;4945869;29;20570;-68
2021/09/09 03:59:41;;;;;;;23.15;18.15;;;15.80;79.90;;;14.61;82.31;95829.16;4954390;28;20063;-67
2021/09/09 04:02:07;;;;;;;19.40;17.30;;;15.80;80.10;;;14.57;83.70;95823.50;4970077;28;20060;-67
2021/09/09 04:04:32;;;;;;;20.45;18.27;;;15.70;80.00;;;14.57;83.46;95828.78;4970020;28;20510;-68
2021/09/09 04:06:58;;;;;;;20.95;18.20;;;15.70;80.20;;;14.56;82.67;95831.66;4964319;28;20067;-68
2021/09/09 04:09:24;;;;;;;19.77;17.67;;;15.70;80.30;;;14.54;83.91;95818.63;4934931;29;20043;-67
2021/09/09 04:11:50;;;;;;;19.20;17.20;;;15.70;80.40;;;14.52;83.33;95820.69;4950635;28;20043;-67
2021/09/09 04:14:15;;;;;;;19.15;17.10;;;15.70;80.20;;;14.53;83.15;95826.81;4950506;28;20118;-67
2021/09/09 04:16:41;;;;;;;19.33;16.98;;;15.70;80.50;;;14.51;84.56;95829.66;4933581;28;20735;-67
2021/09/09 04:19:07;;;;;;;20.23;17.35;;;15.70;80.60;;;14.50;84.08;95828.06;4968858;28;20088;-67
2021/09/09 04:21:33;;;;;;;18.33;16.48;;;15.70;80.60;;;14.48;84.04;95840.66;4950527;29;20031;-67
2021/09/09 04:23:58;;;;;;;37.30;32.17;;;15.70;80.80;;;14.48;83.66;95830.09;4934808;29;20450;-67
2021/09/09 04:26:24;;;;;;;31.63;27.27;;;15.70;80.70;;;14.47;84.52;95839.06;4934426;29;20039;-68
2021/09/09 04:28:50;;;;;;;21.27;18.10;;;15.70;80.80;;;14.48;84.54;95832.72;4934428;28;20055;-68
2021/09/09 04:31:15;;;;;;;20.75;16.98;;;15.70;80.40;;;14.48;82.71;95832.72;4908942;28;20055;-68
2021/09/09 04:33:45;;;;;;;18.20;16.13;;;15.60;80.40;;;14.47;83.33;95831.13;4969533;28;20090;-67
2021/09/09 04:36:10;;;;;;;17.30;15.18;;;15.60;80.10;;;14.44;84.02;95833.38;4969826;28;20130;-68
2021/09/09 04:38:36;;;;;;;19.33;15.82;;;15.60;79.90;;;14.43;83.54;95842.31;4958809;28;20576;-67
2021/09/09 04:41:02;;;;;;;16.75;15.00;;;15.70;79.60;;;14.40;82.90;95828.50;4938368;28;20514;-67
2021/09/09 04:43:28;;;;;;;18.70;14.35;;;15.60;79.30;;;14.37;82.71;95844.03;4942230;29;20042;-67
2021/09/09 04:45:53;;;;;;;19.95;15.38;;;15.60;79.40;;;14.34;82.12;95841.81;4952259;28;20034;-67
2021/09/09 04:48:19;;;;;;;15.98;14.27;;;15.50;79.50;;;14.33;83.22;95840.19;4936369;28;20047;-67
2021/09/09 04:50:45;;;;;;;16.55;14.85;;;15.60;79.50;;;14.33;83.73;95842.84;4935179;28;20081;-67
2021/09/09 04:53:11;;;;;;;16.02;13.73;;;15.60;79.60;;;14.33;83.47;95837.56;4939756;28;20078;-67
2021/09/09 04:55:36;;;;;;;19.67;14.63;;;15.60;79.60;;;14.31;83.95;95834.31;4950559;28;20035;-67
2021/09/09 04:58:02;;;;;;;18.35;15.40;;;15.50;79.70;;;14.29;82.84;95831.09;4985737;28;20525;-67
2021/09/09 05:00:28;;;;;;;18.45;14.38;;;15.50;79.90;;;14.29;83.21;95831.91;4934329;29;20063;-67
2021/09/09 05:02:54;;;;;;;38.92;30.60;;;15.60;79.90;;;14.29;83.12;95833.72;4966149;28;20117;-68
2021/09/09 05:05:19;;;;;;;26.20;23.48;;;15.60;79.90;;;14.30;82.94;95830.06;4985754;28;20466;-68
2021/09/09 05:07:45;;;;;;;27.13;22.92;;;15.60;79.70;;;14.29;83.68;95834.53;4969334;28;20122;-68
2021/09/09 05:10:12;;;;;;;26.55;23.70;;;15.60;79.60;;;14.31;83.08;95834.31;4985841;28;20031;-68
2021/09/09 05:12:39;;;;;;;22.63;18.60;;;15.60;79.60;;;14.29;83.68;95829.25;4965067;28;20057;-68
2021/09/09 05:15:05;;;;;;;31.10;25.88;;;15.60;79.00;;;14.31;82.92;95839.63;4920243;28;20151;-67
2021/09/09 05:17:31;;;;;;;20.17;17.77;;;15.60;79.10;;;14.32;82.61;95838.59;4937323;28;20058;-67
2021/09/09 05:19:56;;;;;;;29.05;25.48;;;15.60;78.90;;;14.31;82.52;95839.63;4969616;28;20094;-67
2021/09/09 05:22:22;;;;;;;28.40;24.63;;;15.60;79.00;;;14.31;82.53;95835.13;4935370;28;20082;-67
2021/09/09 05:24:48;;;;;;;53.17;44.28;;;15.60;79.10;;;14.33;82.45;95838.38;4952686;28;20050;-67
2021/09/09 05:27:14;;;;;;;27.45;24.27;;;15.70;79.30;;;14.34;83.07;95845.28;4968828;28;20094;-67
2021/09/09 05:29:39;;;;;;;39.85;34.33;;;15.70;79.40;;;14.38;82.78;95846.44;4971740;28;20047;-67
2021/09/09 05:32:06;;;;;;;23.63;19.35;;;15.70;79.60;;;14.41;84.67;95845.19;4946096;28;20063;-67
2021/09/09 05:34:32;;;;;;;19.92;17.05;;;15.80;80.10;;;14.46;83.88;95847.22;4953644;28;20038;-67
2021/09/09 05:36:57;;;;;;;20.30;16.70;;;15.80;80.00;;;14.51;84.32;95845.56;4954354;28;20022;-67
2021/09/09 05:39:23;;;;;;;18.05;16.15;;;16.00;80.30;;;14.56;84.03;95837.75;4969721;28;20109;-67
2021/09/09 05:41:49;;;;;;;19.25;16.25;;;16.00;80.50;;;14.60;84.88;95836.28;4967110;28;20554;-67
2021/09/09 05:44:14;;;;;;;18.10;15.82;;;16.10;80.30;;;14.67;84.99;95839.66;4973085;28;20118;-67
2021/09/09 05:46:40;;;;;;;21.45;15.68;;;16.20;80.10;;;14.74;85.35;95844.09;4973770;28;20061;-67
2021/09/09 05:49:06;;;;;;;16.35;14.65;;;16.20;80.10;;;14.81;85.82;95839.50;4956378;28;20062;-67
2021/09/09 05:51:32;;;;;;;26.92;24.13;;;16.40;79.80;;;14.88;85.51;95840.25;4956095;28;20035;-67
2021/09/09 05:53:59;;;;;;;54.47;46.42;;;16.50;79.50;;;14.96;85.13;95842.59;4940490;28;20051;-67
2021/09/09 05:56:25;;;;;;;44.70;37.17;;;16.50;79.50;;;15.02;84.89;95844.34;4956719;28;20030;-67
2021/09/09 05:58:51;;;;;;;24.23;21.63;;;16.60;79.40;;;15.10;85.29;95849.34;4956194;28;20540;-67
2021/09/09 06:01:17;;;;;;;20.45;15.82;;;16.70;79.10;;;15.17;84.92;95850.09;4937009;28;20079;-67
2021/09/09 06:03:45;;;;;;;23.02;14.93;;;16.80;78.80;;;15.24;85.10;95845.50;4964266;28;20046;-67
2021/09/09 06:06:11;;;;;;;19.77;13.57;;;16.90;78.80;;;15.32;84.98;95853.13;4973243;28;20039;-69
2021/09/09 06:08:37;;;;;;;19.15;14.77;;;17.00;78.50;;;15.41;85.05;95847.53;4957066;28;20045;-67
2021/09/09 06:11:02;;;;;;;17.23;15.18;;;17.10;78.30;;;15.47;83.90;95852.72;4956271;28;20570;-66
2021/09/09 06:13:28;;;;;;;18.35;14.88;;;17.10;78.40;;;15.53;84.50;95851.00;4955438;28;20490;-67
2021/09/09 06:15:54;;;;;;;23.25;16.15;;;17.10;78.50;;;15.60;84.25;95849.09;4942000;28;20563;-67
2021/09/09 06:18:20;;;;;;;18.33;14.57;;;17.30;78.50;;;15.69;84.62;95854.91;4969192;28;20507;-67
2021/09/09 06:20:46;;;;;;;18.73;14.43;;;17.30;78.30;;;15.77;84.90;95850.06;4933406;28;20467;-67
2021/09/09 06:23:12;;;;;;;18.77;14.40;;;17.40;78.40;;;15.83;84.99;95845.69;4955451;28;20498;-67
2021/09/09 06:25:38;;;;;;;16.90;14.32;;;17.50;78.40;;;15.89;85.03;95850.09;4973046;28;20073;-67
2021/09/09 06:28:04;;;;;;;16.92;14.23;;;17.60;78.40;;;15.96;84.58;95847.34;4972146;28;20409;-67
2021/09/09 06:30:30;;;;;;;17.63;14.43;;;17.60;78.50;;;16.02;85.00;95851.72;4952457;28;20404;-67
2021/09/09 06:32:55;;;;;;;16.75;14.02;;;17.70;78.30;;;16.09;84.34;95852.44;4936102;28;20039;-67
2021/09/09 06:35:21;;;;;;;15.95;14.07;;;17.80;78.00;;;16.17;84.22;95852.09;4938492;28;20062;-67
2021/09/09 06:37:47;;;;;;;18.50;14.10;;;17.90;77.60;;;16.24;84.23;95850.13;4955488;28;20023;-67
2021/09/09 06:40:13;;;;;;;16.50;14.05;;;18.00;77.40;;;16.35;84.00;95851.19;4959533;28;20043;-67
2021/09/09 06:42:40;;;;;;;16.80;14.10;;;18.10;77.00;;;16.45;84.23;95852.22;4970478;28;20057;-68
2021/09/09 06:45:07;;;;;;;17.15;14.00;;;18.30;76.90;;;16.58;83.60;95861.00;4971270;28;20050;-68
2021/09/09 06:47:33;;;;;;;14.30;12.15;;;18.40;76.60;;;16.68;83.27;95861.22;4939562;28;20149;-68
2021/09/09 06:49:58;;;;;;;16.42;12.63;;;18.50;76.00;;;16.80;83.07;95860.19;4955577;28;20051;-67
2021/09/09 06:52:24;;;;;;;15.07;12.63;;;18.60;75.60;;;16.90;82.82;95864.91;4952052;28;20023;-67
2021/09/09 06:54:50;;;;;;;13.57;12.13;;;18.80;75.20;;;17.03;82.62;95869.97;4967642;28;20448;-67
2021/09/09 06:57:16;;;;;;;14.20;11.82;;;19.00;74.90;;;17.15;82.15;95868.06;4952243;28;20073;-68
2021/09/09 06:59:41;;;;;;;15.70;12.02;;;19.10;74.40;;;17.31;82.44;95865.72;4936131;29;20028;-67
2021/09/09 07:02:07;;;;;;;13.45;11.73;;;19.30;74.40;;;17.46;81.68;95860.69;4951834;29;20036;-67
2021/09/09 07:04:33;;;;;;;14.93;13.30;;;19.50;73.50;;;17.62;81.24;95861.75;4935852;29;20130;-68
2021/09/09 07:06:59;;;;;;;13.63;12.13;;;19.80;72.90;;;17.81;81.62;95862.41;4966270;28;20035;-67
2021/09/09 07:09:24;;;;;;;15.23;12.02;;;20.00;72.00;;;17.98;80.62;95873.88;4971155;28;20139;-67
2021/09/09 07:11:50;;;;;;;16.95;12.48;;;20.20;71.10;;;18.17;79.90;95863.81;4967012;28;20059;-67
2021/09/09 07:14:16;;;;;;;19.20;16.05;;;20.50;70.50;;;18.39;80.19;95871.88;4951922;28;20031;-67
2021/09/09 07:16:42;;;;;;;26.27;21.77;;;20.80;68.80;;;18.59;79.12;95869.50;4947785;28;20527;-68
2021/09/09 07:19:07;;;;;;;14.07;11.20;;;21.20;67.30;;;18.84;76.98;95875.22;4953733;28;20125;-69
2021/09/09 07:21:33;;;;;;;15.75;10.93;;;21.60;65.60;;;19.10;77.17;95870.22;4970915;28;20031;-67
2021/09/09 07:23:59;;;;;;;20.33;10.70;;;21.80;64.30;;;19.34;76.40;95868.91;4970904;28;20452;-67
2021/09/09 07:26:24;;;;;;;16.63;9.95;;;22.10;63.60;;;19.57;75.90;95871.31;4970370;28;20426;-68
2021/09/09 07:28:50;;;;;;;12.38;9.45;;;22.20;63.00;;;19.82;74.79;95870.78;4954118;28;20439;-68
2021/09/09 07:31:16;;;;;;;10.23;9.13;;;22.50;63.60;;;20.07;73.89;95872.06;4970883;28;20114;-68
2021/09/09 07:33:42;;;;;;;11.38;8.63;;;22.70;60.50;;;20.30;72.16;95861.03;4954376;28;20513;-67
2021/09/09 07:36:08;;;;;;;14.20;8.65;;;23.10;58.80;;;20.54;71.48;95868.72;4937809;28;20054;-67
2021/09/09 07:38:34;;;;;;;12.25;8.45;;;23.20;59.00;;;20.77;70.76;95866.44;4980243;28;20054;-68
2021/09/09 07:41:01;;;;;;;12.52;8.00;;;23.60;58.60;;;21.03;70.55;95870.06;4970252;28;20034;-68
2021/09/09 07:43:27;;;;;;;13.50;8.25;;;23.90;57.90;;;21.28;70.39;95869.41;4970382;28;20037;-68
2021/09/09 07:45:53;;;;;;;10.45;8.18;;;24.20;56.20;;;21.51;68.89;95865.47;4954249;28;20039;-68
2021/09/09 07:48:19;;;;;;;9.85;7.82;;;24.40;54.50;;;21.73;68.61;95867.94;4953566;28;20075;-68
2021/09/09 07:50:44;;;;;;;9.85;7.45;;;24.80;54.50;;;21.94;67.58;95874.91;4935374;28;20070;-68
2021/09/09 07:53:11;;;;;;;11.63;8.30;;;25.00;53.40;;;22.15;66.77;95870.41;4951831;28;20046;-68
2021/09/09 07:55:37;;;;;;;10.85;7.63;;;25.20;51.10;;;22.36;65.75;95879.25;4919296;29;20043;-68
2021/09/09 07:58:02;;;;;;;13.32;8.60;;;25.50;51.30;;;22.58;65.16;95874.41;4925679;28;20063;-68
2021/09/09 08:00:28;;;;;;;9.90;7.70;;;25.80;50.70;;;22.81;64.52;95877.59;4942456;28;20038;-68
2021/09/09 08:02:54;;;;;;;8.02;6.90;;;26.10;50.00;;;23.03;63.67;95874.63;4953686;28;20059;-68
2021/09/09 08:05:20;;;;;;;9.65;7.47;;;26.30;49.00;;;23.26;62.91;95878.56;4971325;28;20113;-68
2021/09/09 08:07:46;;;;;;;8.00;6.32;;;26.50;48.30;;;23.47;62.38;95875.53;4943775;29;20147;-68
2021/09/09 08:10:13;;;;;;;10.52;6.90;;;26.80;48.50;;;23.71;60.65;95875.72;4935276;29;20611;-68
2021/09/09 08:12:39;;;;;;;9.23;6.50;;;27.00;46.10;;;23.86;60.63;95879.38;4950568;28;20471;-68
2021/09/09 08:15:07;;;;;;;9.30;6.68;;;27.10;46.20;;;24.04;60.06;95879.53;4936614;28;20122;-68
2021/09/09 08:17:33;;;;;;;10.32;5.93;;;27.20;47.10;;;24.27;59.92;95869.97;4950481;28;20035;-68
2021/09/09 08:19:59;;;;;;;10.32;6.25;;;27.60;46.50;;;24.51;59.73;95882.72;4918774;29;20039;-68
2021/09/09 08:22:26;;;;;;;9.45;5.72;;;27.90;45.50;;;24.77;58.67;95875.19;4934588;28;20388;-68
2021/09/09 08:24:53;;;;;;;7.43;5.70;;;28.10;44.40;;;24.97;56.71;95875.00;4950470;28;20093;-68
2021/09/09 08:27:19;;;;;;;6.60;5.45;;;28.10;41.10;;;25.05;55.51;95882.47;4921738;28;20039;-68
2021/09/09 08:29:44;;;;;;;6.72;5.60;;;27.90;41.30;;;25.20;54.83;95889.56;4969334;28;20042;-68
2021/09/09 08:32:10;;;;;;;7.55;5.90;;;28.10;42.10;;;25.34;54.56;95885.88;4953854;28;20038;-67
2021/09/09 08:34:36;;;;;;;8.13;5.70;;;28.20;41.50;;;25.50;53.55;95886.50;4971082;28;20046;-68
2021/09/09 08:37:02;;;;;;;8.48;5.88;;;28.40;40.90;;;25.65;53.19;95885.53;4935616;28;20058;-67
2021/09/09 08:39:28;;;;;;;9.00;5.10;;;28.60;40.80;;;25.81;53.41;95884.25;4952230;28;20027;-68
2021/09/09 08:41:54;;;;;;;8.23;5.00;;;28.80;41.50;;;25.94;52.66;95882.72;4969585;28;20046;-67
2021/09/09 08:44:19;;;;;;;6.13;4.88;;;28.90;41.50;;;26.12;52.70;95887.31;4953901;28;20062;-68
2021/09/09 08:46:45;;;;;;;7.80;5.63;;;29.00;41.40;;;26.31;52.70;95881.09;4980642;28;20515;-67
2021/09/09 08:49:11;;;;;;;8.70;4.82;;;29.20;40.90;;;26.45;51.06;95887.34;4950301;28;20098;-68
2021/09/09 08:51:37;;;;;;;7.55;5.03;;;29.10;39.40;;;26.59;51.12;95893.59;4934366;29;20514;-68
2021/09/09 08:54:03;;;;;;;7.95;5.05;;;29.20;40.50;;;26.73;50.29;95889.06;4950346;29;20055;-68
2021/09/09 08:56:29;;;;;;;11.75;4.90;;;29.20;39.30;;;26.91;49.90;95894.66;4934127;29;20119;-68
2021/09/09 08:58:55;;;;;;;8.02;4.97;;;29.40;39.20;;;27.11;49.15;95899.72;4949654;28;20031;-68
2021/09/09 09:01:21;;;;;;;9.02;5.10;;;29.70;40.00;;;27.28;48.88;95899.13;4953639;28;20114;-69
2021/09/09 09:03:55;;;;;;;10.18;6.32;;;29.50;38.70;;;27.39;46.09;95892.44;4969272;28;20707;-68
2021/09/09 09:08:57;;;;;;;6.93;5.32;;;30.00;39.50;;;27.82;47.70;95895.59;4956225;28;20035;-68
2021/09/09 09:11:35;;;;;;;7.43;5.15;;;30.30;39.50;;;28.12;46.44;95896.06;4942117;28;20126;-68
2021/09/09 09:14:01;;;;;;;7.20;5.13;;;30.60;39.10;;;28.36;47.33;95894.69;4973352;28;20081;-68
2021/09/09 09:16:27;;;;;;;7.20;5.10;;;30.70;37.90;;;28.61;47.14;95897.88;4953750;29;20063;-68
2021/09/09 09:18:54;;;;;;;7.30;5.18;;;31.00;37.80;;;28.76;46.01;95891.28;4953837;28;20031;-68
2021/09/09 09:21:20;;;;;;;7.15;5.47;;;31.00;37.20;;;28.95;45.24;95897.28;4973584;28;20374;-68
2021/09/09 09:23:57;;;;;;;5.72;4.80;;;31.00;37.20;;;29.07;42.44;95900.22;4957069;28;20519;-68
2021/09/09 09:26:23;;;;;;;5.03;4.45;;;31.10;37.30;;;29.25;45.03;95891.06;4972906;28;20043;-68
2021/09/09 09:28:59;;;;;;;8.57;5.00;;;31.50;37.30;;;29.31;42.54;95888.22;4956824;28;20062;-68
2021/09/09 09:31:30;;;;;;;6.03;4.32;;;31.10;36.30;;;29.38;42.24;95896.69;4972508;28;20442;-68
2021/09/09 09:33:59;;;;;;;8.55;4.68;;;31.40;37.30;;;29.49;42.58;95896.13;4972751;28;20031;-68
2021/09/09 09:36:42;;;;;;;8.18;4.85;;;31.40;36.50;;;29.63;40.94;95895.97;4972610;28;20031;-68
2021/09/09 09:39:14;;;;;;;9.68;5.05;;;31.40;35.90;;;29.69;41.05;95894.75;4972582;28;20049;-68
2021/09/09 09:42:02;;;;;;;6.47;4.43;;;31.60;36.40;;;29.90;40.62;95888.72;4937320;29;20090;-68
2021/09/09 09:44:42;;;;;;;6.95;4.72;;;32.10;35.30;;;30.18;41.13;95890.03;4938285;29;20035;-68
2021/09/09 09:47:32;;;;;;;6.55;4.43;;;32.50;35.80;;;30.44;40.52;95890.81;4936906;28;20375;-68
2021/09/09 09:49:59;;;;;;;9.48;5.45;;;32.80;35.80;;;30.70;42.15;95895.44;4944893;28;20031;-68
2021/09/09 09:52:26;;;;;;;5.90;4.47;;;33.00;35.10;;;30.89;41.39;95881.50;4956107;28;20419;-67
2021/09/09 09:54:57;;;;;;;6.30;4.75;;;33.20;33.90;;;31.07;39.97;95892.00;4972274;28;20471;-68
2021/09/09 09:57:25;;;;;;;6.63;4.70;;;33.40;34.60;;;31.33;40.91;95885.69;4956247;28;20030;-68
2021/09/09 09:59:50;;;;;;;7.65;4.85;;;33.70;33.90;;;31.63;40.70;95883.78;4956150;28;20031;-68
2021/09/09 10:02:16;;;;;;;10.50;4.95;;;34.20;33.30;;;31.99;40.43;95883.25;4972245;28;20053;-68
2021/09/09 10:04:47;;;;;;;9.18;4.10;;;34.30;32.60;;;32.48;38.33;95875.34;4956252;28;20039;-68
2021/09/09 10:07:13;;;;;;;8.73;4.50;;;34.90;32.80;;;32.89;39.59;95878.00;4956386;28;20173;-68
2021/09/09 10:09:39;;;;;;;4.57;3.95;;;34.90;31.40;;;33.31;38.33;95880.56;4972648;28;20410;-68